Time;durP1;ratioP1;P1;durP2;ratioP2;P2;SDS_P1;SDS_P2;PMS_P1;PMS_P2;Temp;Humidity;BMP_temperature;BMP_pressure;BME280_temperature;BME280_humidity;BME280_pressure;Samples;Min_cycle;Max_cycle;Signal;HPM_P1;HPM_P2
2021/06/07 00:01:16;;;;;;;5.30;4.20;;;23.90;61.60;;;;;;5012410;28;20029;-47
2021/06/07 00:03:42;;;;;;;5.57;4.80;;;23.90;61.60;;;;;;5012669;28;20022;-46
2021/06/07 00:06:08;;;;;;;5.47;4.55;;;23.90;61.50;;;;;;5011817;28;20423;-45
2021/06/07 00:08:34;;;;;;;5.68;4.45;;;23.90;61.50;;;;;;5011141;28;20037;-46
2021/06/07 00:11:00;;;;;;;6.00;4.47;;;23.90;61.50;;;;;;5011853;28;20026;-45
2021/06/07 00:13:27;;;;;;;5.13;4.15;;;23.90;61.50;;;;;;5011167;28;20368;-48
2021/06/07 00:15:55;;;;;;;5.10;3.97;;;23.90;61.40;;;;;;5011846;28;20038;-46
2021/06/07 00:18:23;;;;;;;5.53;4.30;;;23.90;61.30;;;;;;5010891;28;20117;-46
2021/06/07 00:21:17;;;;;;;5.60;4.25;;;23.90;61.20;;;;;;5011839;28;20048;-46
2021/06/07 00:23:43;;;;;;;5.15;4.53;;;23.90;61.30;;;;;;4989846;28;20046;-47
2021/06/07 00:26:09;;;;;;;5.20;3.58;;;23.90;61.20;;;;;;4992305;28;20026;-47
2021/06/07 00:28:35;;;;;;;7.35;4.40;;;23.90;61.30;;;;;;4991987;28;20037;-47
2021/06/07 00:31:03;;;;;;;6.90;4.55;;;23.90;61.20;;;;;;4992273;28;20030;-47
2021/06/07 00:33:29;;;;;;;5.38;4.35;;;23.90;61.20;;;;;;4991716;28;20042;-48
2021/06/07 00:35:55;;;;;;;6.05;4.40;;;24.00;61.30;;;;;;4992289;28;20038;-46
2021/06/07 00:38:21;;;;;;;5.55;4.40;;;23.90;61.30;;;;;;5003271;28;20027;-45
2021/06/07 00:40:47;;;;;;;4.82;4.05;;;23.90;61.30;;;;;;5011598;28;20057;-48
2021/06/07 00:43:13;;;;;;;4.72;4.22;;;23.90;61.20;;;;;;5010969;28;20026;-49
2021/06/07 00:45:40;;;;;;;4.78;4.28;;;23.90;61.30;;;;;;5011059;28;20064;-47
2021/06/07 00:48:08;;;;;;;5.10;4.20;;;23.90;61.30;;;;;;5012098;28;20479;-46
2021/06/07 00:50:52;;;;;;;6.25;4.30;;;23.90;61.30;;;;;;5010937;28;20100;-45
2021/06/07 00:53:18;;;;;;;5.22;4.53;;;23.90;61.30;;;;;;5011680;28;20054;-45
2021/06/07 00:55:54;;;;;;;5.70;4.32;;;23.90;61.40;;;;;;5015455;28;20033;-46
2021/06/07 00:58:28;;;;;;;5.60;4.70;;;23.90;61.20;;;;;;5014606;28;20037;-45
2021/06/07 01:00:55;;;;;;;6.00;4.50;;;23.90;61.40;;;;;;5016005;28;20022;-47
2021/06/07 01:03:22;;;;;;;6.15;4.57;;;23.90;61.30;;;;;;5035017;28;20029;-45
2021/06/07 01:05:49;;;;;;;6.88;4.50;;;23.90;61.30;;;;;;5034874;28;20030;-45
2021/06/07 01:08:15;;;;;;;5.18;4.57;;;23.90;61.30;;;;;;5020037;28;20156;-45
2021/06/07 01:10:42;;;;;;;5.78;4.72;;;23.90;61.30;;;;;;5015068;28;20033;-45
2021/06/07 01:13:09;;;;;;;6.07;4.10;;;23.90;61.20;;;;;;5014842;28;20030;-49
2021/06/07 01:15:35;;;;;;;6.40;4.15;;;23.90;61.30;;;;;;5014081;28;20046;-45
2021/06/07 01:18:03;;;;;;;5.38;4.25;;;23.90;61.20;;;;;;5015062;28;20030;-47
2021/06/07 01:20:30;;;;;;;5.75;4.63;;;23.90;61.30;;;;;;5013697;28;20152;-47
2021/06/07 01:22:56;;;;;;;5.63;4.53;;;23.90;61.30;;;;;;5014765;28;20096;-46
2021/06/07 01:25:25;;;;;;;5.60;4.57;;;23.90;61.30;;;;;;5013899;28;20038;-46
2021/06/07 01:27:52;;;;;;;5.28;4.13;;;23.90;61.30;;;;;;5014499;28;20357;-48
2021/06/07 01:30:24;;;;;;;5.82;4.07;;;23.90;61.90;;;;;;5014235;28;20061;-46
2021/06/07 01:32:50;;;;;;;6.47;4.28;;;23.90;61.30;;;;;;5014739;28;20379;-46
2021/06/07 01:35:15;;;;;;;5.05;4.03;;;23.90;61.30;;;;;;5013499;28;20034;-45
2021/06/07 01:37:42;;;;;;;5.22;4.50;;;23.90;61.20;;;;;;5014285;28;20022;-48
2021/06/07 01:40:17;;;;;;;7.13;5.03;;;23.90;61.20;;;;;;5014542;28;20034;-47
2021/06/07 01:42:43;;;;;;;5.95;4.15;;;23.90;61.20;;;;;;5014445;28;20022;-46
2021/06/07 01:45:11;;;;;;;5.68;4.30;;;23.90;61.20;;;;;;5014201;28;20042;-48
2021/06/07 01:47:37;;;;;;;6.65;4.45;;;23.90;61.20;;;;;;5013929;28;20037;-45
2021/06/07 01:50:05;;;;;;;4.78;4.05;;;23.90;61.30;;;;;;5014459;28;20033;-45
2021/06/07 01:52:33;;;;;;;8.63;5.32;;;23.90;61.20;;;;;;5013544;28;20046;-46
2021/06/07 01:54:58;;;;;;;6.63;4.70;;;23.90;61.20;;;;;;5014099;28;20091;-47
2021/06/07 01:57:24;;;;;;;5.63;4.28;;;23.90;61.30;;;;;;5013766;28;20060;-45
2021/06/07 01:59:49;;;;;;;7.28;4.43;;;23.90;61.20;;;;;;5014457;28;20029;-45
2021/06/07 02:02:15;;;;;;;6.45;4.88;;;23.90;61.20;;;;;;5013211;28;20022;-47
2021/06/07 02:04:41;;;;;;;6.35;4.35;;;23.90;61.20;;;;;;5013825;28;20042;-49
2021/06/07 02:07:06;;;;;;;5.68;4.40;;;23.80;61.10;;;;;;5013651;28;20025;-47
2021/06/07 02:09:32;;;;;;;7.70;5.00;;;23.90;61.20;;;;;;5013182;28;20100;-45
2021/06/07 02:11:58;;;;;;;5.43;4.28;;;23.90;61.10;;;;;;5006969;28;20044;-45
2021/06/07 02:14:24;;;;;;;7.18;4.97;;;23.80;61.10;;;;;;5001687;28;20022;-45
2021/06/07 02:16:49;;;;;;;6.70;4.80;;;23.80;61.00;;;;;;5002130;28;20026;-49
2021/06/07 02:19:15;;;;;;;7.88;5.07;;;23.90;61.10;;;;;;5002800;28;20080;-45
2021/06/07 02:21:41;;;;;;;6.50;5.55;;;23.80;61.00;;;;;;5001721;28;20061;-46
2021/06/07 02:24:09;;;;;;;5.38;4.78;;;23.80;61.10;;;;;;5002739;28;20046;-46
2021/06/07 02:26:35;;;;;;;6.40;4.82;;;23.80;61.10;;;;;;5002758;28;20022;-50
2021/06/07 02:29:05;;;;;;;5.65;4.80;;;23.80;61.00;;;;;;5002092;28;20049;-46
2021/06/07 02:31:31;;;;;;;7.13;5.00;;;23.80;61.00;;;;;;5009307;28;20514;-46
2021/06/07 02:33:58;;;;;;;5.68;4.68;;;23.80;61.00;;;;;;5013597;28;20026;-46
2021/06/07 02:36:28;;;;;;;7.20;5.00;;;23.80;61.10;;;;;;5012637;28;20030;-46
2021/06/07 02:38:54;;;;;;;6.75;5.30;;;23.80;61.10;;;;;;5013230;28;20117;-47
2021/06/07 02:41:20;;;;;;;6.88;4.80;;;23.80;61.00;;;;;;5012418;28;20052;-45
2021/06/07 02:43:47;;;;;;;9.05;4.82;;;23.80;61.00;;;;;;5013334;28;20100;-48
2021/06/07 02:46:12;;;;;;;6.57;5.10;;;23.90;61.10;;;;;;5012834;28;20030;-49
2021/06/07 02:48:38;;;;;;;7.60;5.03;;;23.80;61.00;;;;;;5012951;28;20419;-45
2021/06/07 02:51:07;;;;;;;5.97;4.90;;;23.80;61.00;;;;;;5013026;28;20033;-45
2021/06/07 02:53:33;;;;;;;6.47;4.95;;;23.80;61.00;;;;;;5012482;28;20030;-50
2021/06/07 02:55:59;;;;;;;7.07;4.72;;;23.90;61.10;;;;;;5020965;28;20158;-45
2021/06/07 02:58:25;;;;;;;6.13;4.57;;;23.80;61.10;;;;;;5032176;28;20064;-45
2021/06/07 03:00:54;;;;;;;7.10;5.60;;;23.80;61.70;;;;;;5032792;28;20025;-47
2021/06/07 03:03:20;;;;;;;6.90;5.07;;;23.80;61.10;;;;;;5031669;28;20029;-47
2021/06/07 03:05:48;;;;;;;8.93;6.03;;;23.80;61.00;;;;;;5032683;28;20042;-47
2021/06/07 03:08:17;;;;;;;7.32;5.45;;;23.80;61.00;;;;;;5017928;28;20037;-49
2021/06/07 03:10:46;;;;;;;7.07;5.00;;;23.90;61.00;;;;;;5012943;28;20030;-47
2021/06/07 03:13:12;;;;;;;6.50;4.93;;;23.90;60.90;;;;;;5012065;28;20545;-47
2021/06/07 03:15:38;;;;;;;9.10;5.20;;;23.80;61.00;;;;;;5027136;28;20037;-46
2021/06/07 03:18:05;;;;;;;12.68;5.55;;;23.80;61.00;;;;;;5012325;28;20029;-45
2021/06/07 03:20:32;;;;;;;6.25;5.15;;;23.80;60.90;;;;;;5012103;28;20038;-47
2021/06/07 03:23:00;;;;;;;6.43;4.85;;;23.80;60.90;;;;;;5012696;28;20053;-46
2021/06/07 03:25:28;;;;;;;6.65;5.03;;;23.80;60.90;;;;;;5011854;28;20030;-46
2021/06/07 03:27:54;;;;;;;6.63;4.82;;;23.80;60.90;;;;;;5012486;28;20030;-47
2021/06/07 03:30:20;;;;;;;6.90;5.10;;;23.80;61.00;;;;;;5011903;28;20473;-46
2021/06/07 03:32:46;;;;;;;6.25;5.15;;;23.80;60.90;;;;;;5012521;28;20095;-48
2021/06/07 03:35:14;;;;;;;6.88;4.95;;;23.80;60.90;;;;;;5011967;28;20029;-47
2021/06/07 03:37:41;;;;;;;6.57;5.32;;;23.90;60.90;;;;;;5027419;28;20494;-45
2021/06/07 03:40:10;;;;;;;6.30;5.07;;;23.80;60.90;;;;;;5012345;28;20029;-45
2021/06/07 03:42:36;;;;;;;9.07;5.35;;;23.80;60.90;;;;;;5011611;28;20021;-46
2021/06/07 03:45:02;;;;;;;7.13;5.43;;;23.80;60.90;;;;;;5012261;28;20045;-46
2021/06/07 03:47:28;;;;;;;7.65;6.18;;;23.80;60.90;;;;;;5011208;28;20037;-46
2021/06/07 03:49:53;;;;;;;6.70;5.63;;;23.80;60.80;;;;;;5011655;28;20034;-45
2021/06/07 03:52:19;;;;;;;7.47;5.60;;;23.80;60.90;;;;;;5011334;28;20498;-46
2021/06/07 03:54:44;;;;;;;8.68;5.72;;;23.80;60.80;;;;;;5012135;28;20113;-45
2021/06/07 03:57:10;;;;;;;7.40;4.85;;;23.80;60.90;;;;;;5011925;28;20101;-48
2021/06/07 03:59:36;;;;;;;6.60;4.93;;;23.80;60.80;;;;;;5011324;28;20081;-47
2021/06/07 04:02:03;;;;;;;7.80;5.35;;;23.80;60.80;;;;;;5011964;28;20088;-46
2021/06/07 04:04:29;;;;;;;8.25;5.80;;;23.80;60.80;;;;;;5011116;28;20038;-45
2021/06/07 04:06:55;;;;;;;7.40;5.68;;;23.80;60.80;;;;;;5011713;28;20025;-45
2021/06/07 04:09:22;;;;;;;8.05;5.47;;;23.80;60.80;;;;;;5010749;28;20034;-47
2021/06/07 04:11:49;;;;;;;9.80;5.72;;;23.80;60.80;;;;;;5012117;28;20034;-47
2021/06/07 04:14:15;;;;;;;7.63;5.78;;;23.80;60.80;;;;;;5011225;28;20026;-46
2021/06/07 04:16:40;;;;;;;6.88;5.47;;;23.80;60.80;;;;;;5011885;28;20364;-47
2021/06/07 04:19:06;;;;;;;7.32;5.45;;;23.80;60.90;;;;;;5011851;28;20455;-47
2021/06/07 04:21:32;;;;;;;7.88;5.70;;;23.80;60.80;;;;;;5011126;28;20208;-45
2021/06/07 04:23:57;;;;;;;8.25;5.90;;;23.80;60.70;;;;;;5012167;28;20088;-50
2021/06/07 04:26:23;;;;;;;7.53;5.78;;;23.80;60.70;;;;;;5011356;28;20072;-46
2021/06/07 04:28:48;;;;;;;9.45;5.25;;;23.80;60.70;;;;;;5015651;28;20072;-45
2021/06/07 04:31:14;;;;;;;7.55;5.32;;;23.80;60.70;;;;;;5014691;28;20430;-48
2021/06/07 04:33:40;;;;;;;6.05;5.32;;;23.80;60.70;;;;;;5013885;28;20022;-46
2021/06/07 04:36:05;;;;;;;7.43;5.47;;;23.80;60.70;;;;;;5015346;28;20071;-45
2021/06/07 04:38:31;;;;;;;7.72;5.63;;;23.80;60.70;;;;;;5013227;28;20340;-46
2021/06/07 04:40:57;;;;;;;6.80;5.55;;;23.80;60.70;;;;;;5015964;28;20105;-47
2021/06/07 04:43:22;;;;;;;8.80;5.90;;;23.80;60.70;;;;;;5020359;28;20172;-45
2021/06/07 04:45:48;;;;;;;7.65;5.30;;;23.80;60.70;;;;;;5034931;28;20048;-46
2021/06/07 04:48:14;;;;;;;7.45;5.60;;;23.80;60.70;;;;;;5035013;28;20037;-51
2021/06/07 04:50:41;;;;;;;8.48;5.95;;;23.80;60.70;;;;;;5034731;28;20129;-47
2021/06/07 04:53:09;;;;;;;7.72;5.97;;;23.80;60.70;;;;;;5035302;28;20368;-45
2021/06/07 04:55:36;;;;;;;7.43;5.18;;;23.80;60.70;;;;;;5034058;28;20057;-44
2021/06/07 04:58:05;;;;;;;7.10;5.40;;;23.80;60.80;;;;;;5035130;28;20037;-45
2021/06/07 05:00:31;;;;;;;6.60;5.32;;;23.80;60.70;;;;;;5034296;28;20076;-45
2021/06/07 05:02:57;;;;;;;7.05;5.20;;;23.80;60.70;;;;;;5034764;28;20482;-45
2021/06/07 05:05:24;;;;;;;7.93;5.70;;;23.80;60.70;;;;;;5033837;28;20043;-46
2021/06/07 05:07:50;;;;;;;7.40;5.95;;;23.80;60.70;;;;;;5024043;28;20467;-45
2021/06/07 05:10:16;;;;;;;7.10;5.80;;;23.80;60.70;;;;;;5014473;28;20022;-46
2021/06/07 05:12:43;;;;;;;7.05;5.38;;;23.80;60.70;;;;;;5013918;28;20045;-45
2021/06/07 05:15:10;;;;;;;7.38;5.75;;;23.80;60.70;;;;;;5015075;28;20030;-47
2021/06/07 05:17:36;;;;;;;7.55;5.90;;;23.80;60.70;;;;;;5013944;28;20064;-45
2021/06/07 05:20:05;;;;;;;6.32;5.10;;;23.80;60.70;;;;;;5014965;28;20061;-44
2021/06/07 05:22:31;;;;;;;8.50;6.40;;;23.80;60.60;;;;;;5013948;28;20042;-45
2021/06/07 05:24:56;;;;;;;8.35;5.97;;;23.80;60.60;;;;;;5002368;28;20471;-45
2021/06/07 05:27:22;;;;;;;8.70;6.07;;;23.80;60.70;;;;;;5003624;28;20641;-47
2021/06/07 05:29:48;;;;;;;8.68;5.97;;;23.80;60.50;;;;;;5004340;28;20045;-45
2021/06/07 05:32:14;;;;;;;7.35;6.10;;;23.80;60.60;;;;;;5002979;28;20387;-46
2021/06/07 05:34:39;;;;;;;8.43;5.90;;;23.80;60.70;;;;;;5002242;28;20026;-45
2021/06/07 05:37:06;;;;;;;7.75;5.20;;;23.80;60.80;;;;;;5004432;28;20471;-45
2021/06/07 05:39:32;;;;;;;8.95;6.03;;;23.80;60.70;;;;;;5006834;28;20058;-45
2021/06/07 05:41:57;;;;;;;7.75;5.72;;;23.80;60.70;;;;;;5014776;28;20045;-45
2021/06/07 05:44:23;;;;;;;7.25;5.72;;;23.80;60.80;;;;;;5013668;28;20034;-46
2021/06/07 05:46:51;;;;;;;6.43;5.57;;;23.80;60.70;;;;;;5014800;28;20034;-47
2021/06/07 05:49:17;;;;;;;7.45;5.45;;;23.80;60.70;;;;;;5013866;28;20124;-47
2021/06/07 05:51:43;;;;;;;7.82;5.70;;;23.80;61.00;;;;;;5013634;28;20050;-45
2021/06/07 05:54:09;;;;;;;9.65;6.03;;;23.80;60.90;;;;;;5025427;28;20041;-47
2021/06/07 05:56:37;;;;;;;10.52;5.85;;;23.80;61.20;;;;;;5033575;28;20083;-45
2021/06/07 05:59:07;;;;;;;9.75;6.10;;;23.90;61.10;;;;;;5033980;28;20026;-48
2021/06/07 06:01:33;;;;;;;12.05;6.20;;;23.90;61.30;;;;;;5033420;28;20030;-45
2021/06/07 06:03:59;;;;;;;8.85;6.15;;;23.90;61.20;;;;;;5033802;28;20029;-46
2021/06/07 06:06:25;;;;;;;12.45;5.75;;;23.90;61.30;;;;;;5033218;28;20025;-45
2021/06/07 06:08:52;;;;;;;12.85;5.75;;;23.90;61.60;;;;;;5011683;28;20459;-47
2021/06/07 06:11:21;;;;;;;9.50;6.20;;;23.90;61.40;;;;;;5011954;28;20032;-46
2021/06/07 06:13:48;;;;;;;16.25;7.28;;;23.90;61.40;;;;;;5013912;28;20080;-49
2021/06/07 06:16:14;;;;;;;15.05;7.60;;;23.90;61.40;;;;;;5016539;28;20025;-46
2021/06/07 06:18:40;;;;;;;16.92;6.22;;;23.90;61.40;;;;;;5033378;28;20061;-50
2021/06/07 06:21:07;;;;;;;12.73;6.75;;;23.80;63.00;;;;;;5033301;28;20063;-46
2021/06/07 06:23:33;;;;;;;11.85;7.15;;;23.80;63.60;;;;;;5032633;28;20124;-46
2021/06/07 06:26:01;;;;;;;12.45;7.15;;;23.80;64.30;;;;;;5033175;28;20038;-46
2021/06/07 06:28:27;;;;;;;16.20;7.25;;;23.80;64.20;;;;;;5031962;28;20033;-49
2021/06/07 06:30:53;;;;;;;10.63;7.40;;;23.70;63.80;;;;;;5013406;28;20053;-47
2021/06/07 06:33:18;;;;;;;14.85;8.02;;;23.70;63.90;;;;;;5012471;28;20475;-49
2021/06/07 06:35:44;;;;;;;11.02;7.50;;;23.70;64.00;;;;;;5013437;28;20087;-47
2021/06/07 06:38:10;;;;;;;12.48;8.18;;;23.60;63.50;;;;;;5012343;28;20025;-45
2021/06/07 06:40:38;;;;;;;16.98;7.93;;;23.70;63.80;;;;;;5012704;28;20033;-46
2021/06/07 06:43:05;;;;;;;14.63;7.78;;;23.70;63.80;;;;;;5013506;28;20064;-46
2021/06/07 06:45:32;;;;;;;16.38;8.00;;;23.70;63.60;;;;;;5012412;28;20042;-48
2021/06/07 06:47:59;;;;;;;17.27;10.30;;;23.60;63.50;;;;;;5013261;28;20114;-49
2021/06/07 06:50:34;;;;;;;14.60;9.57;;;23.60;62.10;;;;;;5011284;28;20026;-50
2021/06/07 06:53:04;;;;;;;12.70;8.60;;;23.60;61.70;;;;;;5011610;28;20050;-46
2021/06/07 06:55:31;;;;;;;12.70;7.88;;;23.60;61.80;;;;;;5011412;28;20041;-51
2021/06/07 06:57:56;;;;;;;10.95;7.78;;;23.70;62.00;;;;;;5013159;28;20112;-46
2021/06/07 07:00:23;;;;;;;11.07;6.95;;;23.80;61.80;;;;;;5011725;28;20137;-46
2021/06/07 07:02:49;;;;;;;11.32;6.82;;;23.80;61.70;;;;;;5012945;28;20041;-49
2021/06/07 07:05:15;;;;;;;12.35;7.38;;;23.90;61.80;;;;;;5012481;28;20045;-48
2021/06/07 07:07:40;;;;;;;8.32;6.32;;;23.90;61.70;;;;;;5011711;28;20394;-46
2021/06/07 07:10:08;;;;;;;10.05;6.43;;;23.90;61.70;;;;;;5012351;28;20444;-46
2021/06/07 07:12:34;;;;;;;10.30;6.50;;;23.90;61.80;;;;;;5011395;28;20145;-47
2021/06/07 07:14:59;;;;;;;11.07;6.75;;;23.90;62.30;;;;;;5012421;28;20109;-45
2021/06/07 07:17:25;;;;;;;8.73;6.85;;;23.90;61.80;;;;;;5011865;28;20503;-46
2021/06/07 07:19:51;;;;;;;9.43;6.43;;;23.90;61.80;;;;;;5012249;28;20030;-48
2021/06/07 07:22:19;;;;;;;10.23;6.35;;;23.90;61.80;;;;;;5026952;28;20033;-47
2021/06/07 07:24:46;;;;;;;9.05;6.43;;;23.90;61.80;;;;;;5031982;28;20453;-46
2021/06/07 07:27:14;;;;;;;8.20;5.60;;;23.90;61.70;;;;;;5022894;28;20077;-46
2021/06/07 07:29:40;;;;;;;9.27;5.85;;;23.90;61.70;;;;;;5010861;28;20102;-46
2021/06/07 07:32:07;;;;;;;8.55;6.18;;;24.00;61.80;;;;;;5012173;28;20026;-46
2021/06/07 07:34:33;;;;;;;6.80;5.53;;;24.00;61.80;;;;;;5011520;28;20065;-46
2021/06/07 07:37:00;;;;;;;8.98;6.40;;;24.00;61.70;;;;;;5012231;28;20120;-46
2021/06/07 07:39:26;;;;;;;10.98;5.82;;;24.00;61.80;;;;;;5011179;28;20030;-47
2021/06/07 07:41:53;;;;;;;8.85;6.03;;;24.00;61.80;;;;;;5012274;28;20022;-45
2021/06/07 07:44:19;;;;;;;6.68;5.75;;;24.00;61.80;;;;;;5011532;28;20041;-47
2021/06/07 07:46:46;;;;;;;7.38;5.57;;;23.90;61.80;;;;;;5012199;28;20052;-46
2021/06/07 07:49:12;;;;;;;9.18;5.85;;;24.00;61.80;;;;;;5012243;28;20026;-46
2021/06/07 07:51:39;;;;;;;7.03;5.30;;;24.00;61.80;;;;;;5020265;28;20241;-50
2021/06/07 07:54:06;;;;;;;7.75;5.28;;;24.00;61.80;;;;;;5031219;28;20115;-51
2021/06/07 07:56:33;;;;;;;7.57;5.00;;;24.00;61.80;;;;;;5030755;28;20029;-48
2021/06/07 07:58:58;;;;;;;7.65;5.40;;;24.00;61.80;;;;;;5031800;28;20044;-45
2021/06/07 08:01:25;;;;;;;8.80;6.07;;;24.00;62.00;;;;;;5030592;28;20022;-51
2021/06/07 08:03:50;;;;;;;7.32;5.28;;;24.00;61.90;;;;;;5031631;28;20355;-47
2021/06/07 08:06:16;;;;;;;6.65;5.28;;;24.00;61.80;;;;;;5030848;28;20048;-49
2021/06/07 08:08:41;;;;;;;7.43;5.25;;;23.90;61.80;;;;;;5013429;28;20030;-49
2021/06/07 08:11:07;;;;;;;8.52;5.28;;;24.00;61.90;;;;;;5011566;28;20026;-49
2021/06/07 08:13:33;;;;;;;6.68;5.00;;;24.00;61.80;;;;;;5010634;28;20045;-47
2021/06/07 08:15:58;;;;;;;6.03;5.13;;;24.00;61.90;;;;;;5011843;28;20114;-45
2021/06/07 08:18:24;;;;;;;7.63;4.82;;;24.00;61.80;;;;;;5011160;28;20026;-46
2021/06/07 08:20:51;;;;;;;6.40;4.85;;;24.00;61.80;;;;;;5013213;28;20025;-48
2021/06/07 08:23:16;;;;;;;8.18;5.47;;;24.00;61.70;;;;;;5029752;28;20033;-48
2021/06/07 08:25:42;;;;;;;8.68;5.50;;;24.00;61.70;;;;;;5031103;28;20037;-46
2021/06/07 08:28:08;;;;;;;6.68;4.53;;;24.00;61.70;;;;;;5031414;28;20033;-49
2021/06/07 08:30:34;;;;;;;8.23;4.40;;;24.00;61.80;;;;;;5030669;28;20021;-45
2021/06/07 08:33:01;;;;;;;6.65;5.07;;;24.00;61.70;;;;;;5031551;28;20470;-45
2021/06/07 08:35:27;;;;;;;5.40;4.28;;;24.00;61.70;;;;;;5030493;28;20033;-47
2021/06/07 08:37:54;;;;;;;5.55;4.50;;;24.00;61.70;;;;;;5023333;28;20379;-46
2021/06/07 08:40:20;;;;;;;7.50;4.32;;;24.00;61.70;;;;;;5010620;28;20035;-47
2021/06/07 08:42:46;;;;;;;6.22;4.70;;;24.00;61.80;;;;;;5011597;28;20034;-47
2021/06/07 08:45:18;;;;;;;6.75;4.53;;;24.00;61.70;;;;;;5011554;28;20494;-45
2021/06/07 08:47:45;;;;;;;9.98;4.63;;;24.00;61.80;;;;;;5011987;28;20091;-49
2021/06/07 08:50:13;;;;;;;6.07;4.57;;;24.00;61.70;;;;;;5011238;28;20037;-47
2021/06/07 08:52:43;;;;;;;6.03;4.70;;;24.00;61.70;;;;;;5028530;28;20133;-47
2021/06/07 08:55:13;;;;;;;5.68;4.25;;;24.00;61.70;;;;;;5031233;28;20033;-47
2021/06/07 08:57:42;;;;;;;6.10;4.40;;;24.00;61.60;;;;;;5030100;28;20467;-52
2021/06/07 09:00:10;;;;;;;5.80;3.97;;;24.00;61.70;;;;;;5031438;28;20030;-51
2021/06/07 09:02:37;;;;;;;5.70;4.32;;;24.00;61.70;;;;;;5030347;28;20163;-46
2021/06/07 09:05:04;;;;;;;8.95;4.68;;;24.00;61.60;;;;;;5030740;28;20061;-48
2021/06/07 09:07:30;;;;;;;5.05;4.22;;;24.00;61.70;;;;;;5022085;28;20386;-49
2021/06/07 09:10:12;;;;;;;4.70;3.90;;;24.00;61.70;;;;;;5019273;28;20025;-49
2021/06/07 09:12:41;;;;;;;7.32;5.07;;;24.00;61.70;;;;;;5031118;28;20121;-46
2021/06/07 09:15:07;;;;;;;5.78;4.38;;;24.10;62.10;;;;;;5032544;28;20029;-47
2021/06/07 09:17:33;;;;;;;6.47;5.00;;;24.20;62.40;;;;;;5033799;28;20143;-57
2021/06/07 09:20:16;;;;;;;7.25;4.40;;;24.20;62.90;;;;;;5034410;28;20109;-56
2021/06/07 09:22:53;;;;;;;5.88;4.65;;;24.20;62.80;;;;;;5034079;28;20026;-56
2021/06/07 09:25:23;;;;;;;7.57;4.97;;;24.20;63.50;;;;;;5033574;28;20167;-56
2021/06/07 09:28:07;;;;;;;6.38;4.50;;;24.20;63.60;;;;;;5034395;28;20052;-56
2021/06/07 09:30:47;;;;;;;6.25;4.43;;;24.20;63.30;;;;;;5033615;28;20040;-55
2021/06/07 09:33:23;;;;;;;6.28;4.55;;;24.20;63.30;;;;;;5034167;28;20076;-55
2021/06/07 09:36:07;;;;;;;6.10;4.20;;;24.30;63.20;;;;;;5034155;28;20075;-56
2021/06/07 09:38:34;;;;;;;8.30;4.50;;;24.30;63.10;;;;;;5018574;28;20033;-56
2021/06/07 09:41:02;;;;;;;7.45;5.00;;;24.30;63.00;;;;;;5014028;28;20088;-55
2021/06/07 09:43:56;;;;;;;5.05;3.75;;;24.30;63.00;;;;;;5013499;28;20461;-55
2021/06/07 09:46:25;;;;;;;6.53;4.00;;;24.30;62.90;;;;;;5013532;28;20034;-56
2021/06/07 09:49:05;;;;;;;6.00;4.18;;;24.30;62.80;;;;;;5014555;28;20080;-56
2021/06/07 09:51:31;;;;;;;6.35;4.38;;;24.30;62.70;;;;;;5021310;28;20046;-56
2021/06/07 09:53:56;;;;;;;4.57;3.90;;;24.30;62.70;;;;;;5033503;28;20041;-55
2021/06/07 09:56:24;;;;;;;4.95;4.28;;;24.40;62.70;;;;;;5032677;28;20386;-54
2021/06/07 09:58:50;;;;;;;5.55;4.22;;;24.40;62.60;;;;;;5033592;28;20036;-56
2021/06/07 10:01:28;;;;;;;6.45;4.10;;;24.40;62.60;;;;;;5033406;28;20371;-55
2021/06/07 10:03:59;;;;;;;5.30;3.80;;;24.40;62.50;;;;;;5033819;28;20026;-55
2021/06/07 10:06:35;;;;;;;4.87;3.60;;;24.40;62.40;;;;;;5032987;28;20044;-55
2021/06/07 10:09:12;;;;;;;6.28;4.50;;;24.40;62.30;;;;;;5011167;28;20030;-55
2021/06/07 10:11:45;;;;;;;7.72;3.88;;;24.40;62.30;;;;;;5011085;28;20061;-55
2021/06/07 10:14:18;;;;;;;4.28;3.70;;;24.40;62.30;;;;;;5012476;28;20033;-55
2021/06/07 10:17:00;;;;;;;6.35;3.58;;;24.50;62.20;;;;;;5013777;28;20476;-52
2021/06/07 10:20:46;;;;;;;4.50;3.42;;;24.40;62.10;;;;;;5027857;28;20034;-58
2021/06/07 10:22:19;;;;;;;4.45;3.55;;;24.50;62.20;;;;;;5029532;28;20437;-58
2021/06/07 10:24:45;;;;;;;5.15;3.90;;;24.50;62.10;;;;;;5032750;28;20140;-57
2021/06/07 10:27:12;;;;;;;5.13;3.85;;;24.50;62.10;;;;;;5033116;28;20096;-55
2021/06/07 10:29:42;;;;;;;4.25;3.40;;;24.50;62.10;;;;;;5032225;28;20075;-55
2021/06/07 10:32:11;;;;;;;4.70;3.40;;;24.50;62.00;;;;;;5033383;28;20052;-57
2021/06/07 10:34:51;;;;;;;5.75;3.85;;;24.50;61.90;;;;;;5032402;28;20029;-55
2021/06/07 10:37:16;;;;;;;4.47;3.53;;;24.50;62.00;;;;;;5029410;28;20030;-57
2021/06/07 10:39:43;;;;;;;4.53;3.45;;;24.50;61.90;;;;;;5028204;28;20036;-55
2021/06/07 10:42:08;;;;;;;5.38;3.65;;;24.50;61.80;;;;;;5013350;28;20034;-57
2021/06/07 10:44:40;;;;;;;4.22;3.58;;;24.50;61.80;;;;;;5011760;28;20087;-56
2021/06/07 10:47:10;;;;;;;4.93;3.15;;;24.50;61.80;;;;;;5013320;28;20041;-52
2021/06/07 10:50:17;;;;;;;4.97;3.42;;;24.60;61.90;;;;;;5011981;28;20026;-52
2021/06/07 10:52:59;;;;;;;6.55;3.40;;;24.60;61.90;;;;;;5028347;28;20049;-56
2021/06/07 10:55:39;;;;;;;5.15;3.30;;;24.60;61.80;;;;;;5031109;28;20029;-58
2021/06/07 10:58:08;;;;;;;5.28;3.70;;;24.60;61.80;;;;;;5032870;28;20033;-56
2021/06/07 11:00:42;;;;;;;5.47;3.70;;;24.60;61.80;;;;;;5031730;28;20021;-57
2021/06/07 11:03:26;;;;;;;5.25;3.20;;;24.60;62.00;;;;;;5048097;28;20029;-51
2021/06/07 11:06:03;;;;;;;7.32;3.88;;;24.70;62.20;;;;;;5032769;28;20033;-50
2021/06/07 11:08:31;;;;;;;6.13;4.05;;;24.60;62.90;;;;;;5015820;28;20467;-55
2021/06/07 11:11:16;;;;;;;8.90;3.30;;;24.60;62.50;;;;;;5012773;28;20030;-50
2021/06/07 11:13:49;;;;;;;5.32;3.65;;;24.60;62.40;;;;;;5012218;28;20026;-57
2021/06/07 11:16:30;;;;;;;4.07;3.63;;;24.60;62.60;;;;;;5012721;28;20030;-56
2021/06/07 11:18:57;;;;;;;5.57;4.35;;;24.60;62.60;;;;;;5013029;28;20026;-56
2021/06/07 11:21:29;;;;;;;5.90;3.60;;;24.60;62.60;;;;;;5018661;28;20470;-50
2021/06/07 11:23:56;;;;;;;7.97;4.00;;;24.70;62.30;;;;;;5032440;28;20038;-51
2021/06/07 11:26:35;;;;;;;5.32;3.90;;;24.70;62.40;;;;;;5031292;28;20072;-52
2021/06/07 11:29:01;;;;;;;8.00;3.70;;;24.70;62.30;;;;;;5032110;28;20075;-50
2021/06/07 11:31:32;;;;;;;8.00;4.00;;;24.70;62.20;;;;;;5031445;28;20034;-50
2021/06/07 11:34:00;;;;;;;6.68;3.85;;;24.70;62.80;;;;;;5032283;28;20104;-52
2021/06/07 11:36:55;;;;;;;5.20;3.90;;;24.70;63.10;;;;;;5030957;28;20048;-56
2021/06/07 11:39:23;;;;;;;8.40;4.35;;;24.70;62.70;;;;;;5011395;28;20033;-52
2021/06/07 11:41:58;;;;;;;6.15;4.32;;;24.70;62.80;;;;;;5012144;28;20044;-57
2021/06/07 11:44:42;;;;;;;6.05;4.57;;;24.70;62.90;;;;;;5011185;28;20042;-55
2021/06/07 11:47:15;;;;;;;5.15;4.35;;;24.80;63.10;;;;;;5012305;28;20030;-56
2021/06/07 11:49:55;;;;;;;5.47;4.45;;;24.80;63.50;;;;;;5011914;28;20034;-57
2021/06/07 11:52:53;;;;;;;4.00;3.53;;;24.70;63.10;;;;;;5026551;28;20057;-56
2021/06/07 11:55:32;;;;;;;6.90;4.28;;;24.80;63.40;;;;;;5031204;28;20030;-54
2021/06/07 11:58:19;;;;;;;5.57;4.10;;;24.80;64.10;;;;;;5031956;28;20112;-56
2021/06/07 12:00:51;;;;;;;5.13;4.07;;;24.80;63.90;;;;;;5031625;28;20021;-55
2021/06/07 12:03:22;;;;;;;6.22;4.22;;;24.80;63.80;;;;;;5031488;28;20367;-56
2021/06/07 12:05:49;;;;;;;4.65;3.55;;;24.80;63.80;;;;;;5031359;28;20502;-56
2021/06/07 12:08:17;;;;;;;4.63;4.03;;;24.80;64.00;;;;;;5017444;28;20033;-55
2021/06/07 12:10:48;;;;;;;4.32;3.63;;;24.80;63.80;;;;;;5011225;28;20113;-55
2021/06/07 12:13:32;;;;;;;4.07;3.45;;;24.80;63.80;;;;;;5011794;28;20160;-53
2021/06/07 12:16:01;;;;;;;6.72;4.38;;;24.80;63.80;;;;;;5011991;28;20103;-53
2021/06/07 12:18:34;;;;;;;5.18;4.15;;;24.80;63.90;;;;;;5011094;28;20029;-54
2021/06/07 12:21:06;;;;;;;5.97;3.70;;;24.80;63.80;;;;;;5015403;28;20026;-55
2021/06/07 12:23:35;;;;;;;;;;;24.80;63.80;;;;;;5031213;28;20155;-56
2021/06/07 12:29:29;;;;;;;5.63;4.15;;;24.80;63.70;;;;;;5031466;28;20044;-57
2021/06/07 12:32:03;;;;;;;4.40;3.53;;;24.80;63.50;;;;;;5031372;28;20057;-55
2021/06/07 12:34:29;;;;;;;4.00;3.25;;;24.80;63.60;;;;;;5031039;28;20041;-53
2021/06/07 12:36:54;;;;;;;4.93;3.45;;;24.80;63.80;;;;;;5026318;28;20033;-57
2021/06/07 12:39:20;;;;;;;4.68;3.75;;;24.80;63.40;;;;;;5024403;28;20116;-56
2021/06/07 12:41:47;;;;;;;5.35;3.92;;;24.90;63.60;;;;;;5031434;28;20087;-57
2021/06/07 12:44:13;;;;;;;5.22;3.92;;;24.80;63.50;;;;;;5031650;28;20082;-56
2021/06/07 12:46:49;;;;;;;5.60;3.58;;;24.80;63.90;;;;;;5010577;28;20062;-57
2021/06/07 12:49:28;;;;;;;4.00;3.25;;;24.80;63.20;;;;;;5012731;28;20029;-57
2021/06/07 12:52:02;;;;;;;4.30;3.65;;;24.80;63.30;;;;;;5026601;28;20430;-57
2021/06/07 12:54:30;;;;;;;5.93;3.45;;;24.80;63.40;;;;;;5034048;28;20434;-57
2021/06/07 12:56:59;;;;;;;4.32;3.90;;;24.80;63.40;;;;;;5035056;28;20116;-57